This is the latest recevied weather packets stored in our database for station/object EA4IAJ-12. If no packets are shown the sender has not sent any weather packets the latest 10 day(s).
| Time | Temp. | Humidity | Pressure | Rain* | Wind** | Luminosity | Snow |
|---|---|---|---|---|---|---|---|
| 1787586683 | 27.78° C | 36% | 1026.1 hPa | - | - | - | - |
| 1787585783 | 29.44° C | 36% | 1031.2 hPa | - | - | - | - |
| 1787584882 | 28.89° C | 37% | 1031 hPa | - | - | - | - |
| 1787583982 | 28.89° C | 37% | 1029.3 hPa | - | - | - | - |
| 1787583081 | 29.44° C | 37% | 1032.1 hPa | - | - | - | - |
| 1787582181 | 28.33° C | 37% | 1028 hPa | - | - | - | - |
| 1787581280 | 30.56° C | 38% | 1037.1 hPa | - | - | - | - |
| 1787580380 | 28.33° C | 38% | 1027.4 hPa | - | - | - | - |
| 1787579479 | 27.78° C | 38% | 1026.9 hPa | - | - | - | - |
| 1787578579 | 31.11° C | 39% | 1040.2 hPa | - | - | - | - |
| 1787577678 | 29.44° C | 40% | 1033.8 hPa | - | - | - | - |
| 1787576778 | 30° C | 41% | 1035.5 hPa | - | - | - | - |
| 1787575877 | 30.56° C | 42% | 1037.9 hPa | - | - | - | - |
| 1787574976 | 31.11° C | 44% | 1041.5 hPa | - | - | - | - |
| 1787574076 | 28.33° C | 43% | 1029.6 hPa | - | - | - | - |
| 1787573175 | 30° C | 45% | 1036.6 hPa | - | - | - | - |
| 1787572274 | 28.89° C | 46% | 1032.9 hPa | - | - | - | - |
| 1787571374 | 27.22° C | 45% | 1025.7 hPa | - | - | - | - |
| 1787570473 | 25.56° C | 45% | 1020.5 hPa | - | - | - | - |
| 1787569573 | 27.22° C | 46% | 1025.1 hPa | - | - | - | - |
| 1787568672 | 28.33° C | 47% | 1030.4 hPa | - | - | - | - |
| 1787567772 | 27.22° C | 46% | 1025.1 hPa | - | - | - | - |
| 1787566871 | 28.33° C | 47% | 1030.4 hPa | - | - | - | - |
| 1787565971 | 28.89° C | 48% | 1031.9 hPa | - | - | - | - |
| 1787565087 | 28.33° C | 49% | 1030.5 hPa | - | - | - | - |
* Rain since midnight (hover to see other rain measurements)
** Current wind speed in m/s (hover to see current wind gust speed)